createdAt,value
2022-12-03T00:00:00.292Z,13.27
2022-12-03T00:02:27.417Z,14.40
2022-12-03T00:04:54.793Z,13.07
2022-12-03T00:07:21.983Z,13.80
2022-12-03T00:09:50.259Z,14.27
2022-12-03T00:12:17.336Z,14.40
2022-12-03T00:14:44.975Z,14.60
2022-12-03T00:17:12.203Z,15.03
2022-12-03T00:19:39.166Z,14.23
2022-12-03T00:22:06.163Z,14.40
2022-12-03T00:24:34.030Z,13.00
2022-12-03T00:27:02.463Z,14.10
2022-12-03T00:29:29.386Z,13.37
2022-12-03T00:31:56.376Z,13.10
2022-12-03T00:34:23.394Z,14.23
2022-12-03T00:36:50.321Z,13.10
2022-12-03T00:39:17.322Z,13.43
2022-12-03T00:41:44.271Z,14.03
2022-12-03T00:44:12.723Z,13.70
2022-12-03T00:46:39.967Z,14.43
2022-12-03T00:49:07.102Z,14.13
2022-12-03T00:51:34.051Z,13.27
2022-12-03T00:54:01.080Z,14.27
2022-12-03T00:56:28.023Z,14.80
2022-12-03T00:58:54.980Z,13.30
2022-12-03T01:01:24.730Z,13.93
2022-12-03T01:03:51.821Z,13.87
2022-12-03T01:06:18.781Z,14.47
2022-12-03T01:08:45.754Z,14.10
2022-12-03T01:11:31.313Z,15.23
2022-12-03T01:13:58.295Z,14.43
2022-12-03T01:16:26.735Z,14.53
2022-12-03T01:18:53.764Z,15.70
2022-12-03T01:21:20.818Z,15.20
2022-12-03T01:23:47.925Z,15.77
2022-12-03T01:26:14.889Z,15.60
2022-12-03T01:28:42.097Z,15.10
2022-12-03T01:31:28.385Z,15.13
2022-12-03T01:33:56.780Z,14.40
2022-12-03T01:36:23.888Z,15.50
2022-12-03T01:38:50.932Z,16.07
2022-12-03T01:41:20.620Z,15.93
2022-12-03T01:43:50.954Z,16.00
2022-12-03T01:46:22.338Z,14.93
2022-12-03T01:48:52.490Z,14.93
2022-12-03T01:51:20.983Z,15.53
2022-12-03T01:53:48.962Z,16.23
2022-12-03T01:56:18.526Z,15.30
2022-12-03T01:58:47.103Z,15.03
2022-12-03T02:01:16.545Z,15.17
2022-12-03T02:03:44.758Z,15.07
2022-12-03T02:06:18.166Z,13.87
2022-12-03T02:08:47.863Z,15.93
2022-12-03T02:11:22.315Z,15.50
2022-12-03T02:13:54.857Z,16.40
2022-12-03T02:16:22.455Z,15.17
2022-12-03T02:18:49.572Z,16.23
2022-12-03T02:21:35.759Z,15.90
2022-12-03T02:24:15.413Z,15.57
2022-12-03T02:26:43.771Z,16.70
2022-12-03T02:29:11.047Z,15.43
2022-12-03T02:31:38.221Z,16.93
2022-12-03T02:34:07.213Z,15.73
2022-12-03T02:36:36.048Z,16.60
2022-12-03T02:39:05.011Z,15.27
2022-12-03T02:41:51.054Z,17.57
2022-12-03T02:44:19.584Z,15.27
2022-12-03T02:46:46.667Z,16.23
2022-12-03T02:49:14.016Z,15.43
2022-12-03T02:51:41.333Z,15.27
2022-12-03T02:54:08.445Z,16.97
2022-12-03T02:56:35.495Z,15.30
2022-12-03T02:59:05.574Z,16.50
2022-12-03T03:01:34.901Z,15.13
2022-12-03T03:04:03.207Z,16.67
2022-12-03T03:06:30.891Z,16.33
2022-12-03T03:08:58.277Z,16.57
2022-12-03T03:11:26.605Z,15.63
2022-12-03T03:13:53.941Z,16.20
2022-12-03T03:16:21.111Z,16.80
2022-12-03T03:18:49.554Z,15.27
2022-12-03T03:21:16.746Z,15.80
2022-12-03T03:23:44.176Z,16.50
2022-12-03T03:26:14.600Z,15.83
2022-12-03T03:28:47.042Z,16.20
2022-12-03T03:31:17.935Z,15.20
2022-12-03T03:33:49.603Z,15.47
2022-12-03T03:36:17.533Z,17.03
2022-12-03T03:38:44.708Z,17.80
2022-12-03T03:41:13.860Z,18.33
2022-12-03T03:43:44.006Z,16.23
2022-12-03T03:46:12.274Z,17.30
2022-12-03T03:48:41.995Z,16.83
2022-12-03T03:51:12.338Z,16.70
2022-12-03T03:53:44.094Z,17.03
2022-12-03T03:56:11.982Z,17.03
2022-12-03T03:58:39.140Z,16.77
2022-12-03T04:01:07.045Z,18.30
2022-12-03T04:03:34.619Z,16.90
2022-12-03T04:06:01.884Z,16.40
2022-12-03T04:08:30.617Z,18.27
2022-12-03T04:11:16.349Z,18.03
2022-12-03T04:13:43.332Z,16.27
2022-12-03T04:16:10.393Z,18.20
2022-12-03T04:18:43.617Z,16.60
2022-12-03T04:21:30.889Z,17.50
2022-12-03T04:23:59.705Z,17.77
2022-12-03T04:26:45.231Z,17.13
2022-12-03T04:29:13.351Z,17.53
2022-12-03T04:31:59.296Z,16.57
2022-12-03T04:34:44.792Z,17.47
2022-12-03T04:37:12.081Z,16.43
2022-12-03T04:39:40.535Z,17.17
2022-12-03T04:42:07.700Z,18.63
2022-12-03T04:44:37.727Z,17.50
2022-12-03T04:47:10.250Z,17.13
2022-12-03T04:49:39.729Z,18.13
2022-12-03T04:52:07.562Z,16.53
2022-12-03T04:54:35.007Z,18.13
2022-12-03T04:57:05.526Z,17.33
2022-12-03T04:59:33.233Z,16.83
2022-12-03T05:02:00.474Z,17.93
2022-12-03T05:04:27.846Z,18.03
2022-12-03T05:06:55.150Z,17.63
2022-12-03T05:09:22.367Z,15.97
2022-12-03T05:11:49.406Z,17.43
2022-12-03T05:14:17.737Z,17.70
2022-12-03T05:16:44.803Z,17.90
2022-12-03T05:19:11.875Z,18.00
2022-12-03T05:21:38.863Z,18.00
2022-12-03T05:24:06.521Z,17.67
2022-12-03T05:26:33.491Z,17.90
2022-12-03T05:29:00.457Z,17.93
2022-12-03T05:31:28.836Z,16.17
2022-12-03T05:33:55.860Z,17.60
2022-12-03T05:36:25.215Z,18.77
2022-12-03T05:38:52.344Z,18.57
2022-12-03T05:41:37.840Z,18.90
2022-12-03T05:44:04.933Z,18.50
2022-12-03T05:46:33.643Z,18.13
2022-12-03T05:49:00.940Z,18.53
2022-12-03T05:51:28.191Z,20.40
2022-12-03T05:53:55.122Z,19.63
2022-12-03T05:56:22.052Z,18.00
2022-12-03T05:58:49.010Z,19.83
2022-12-03T06:01:16.564Z,19.43
2022-12-03T06:03:44.946Z,19.70
2022-12-03T06:06:12.069Z,18.20
2022-12-03T06:08:38.987Z,19.73
2022-12-03T06:11:06.122Z,18.73
2022-12-03T06:13:33.056Z,20.27
2022-12-03T06:16:00.061Z,20.47
2022-12-03T06:18:27.149Z,18.63
2022-12-03T06:20:55.407Z,19.53
2022-12-03T06:23:22.413Z,19.60
2022-12-03T06:25:49.383Z,19.50
2022-12-03T06:28:16.330Z,19.43
2022-12-03T06:30:43.405Z,19.93
2022-12-03T06:33:10.432Z,20.40
2022-12-03T06:35:37.403Z,20.80
2022-12-03T06:38:05.786Z,18.53
2022-12-03T06:40:32.926Z,21.77
2022-12-03T06:42:59.873Z,20.37
2022-12-03T06:45:26.891Z,20.60
2022-12-03T06:47:53.803Z,20.20
2022-12-03T06:50:20.948Z,20.37
2022-12-03T06:52:47.854Z,19.57
2022-12-03T06:55:16.380Z,21.47
2022-12-03T06:57:43.294Z,20.17
2022-12-03T07:00:11.980Z,21.67
2022-12-03T07:02:39.172Z,20.60
2022-12-03T07:05:07.814Z,20.47
2022-12-03T07:07:34.800Z,20.37
2022-12-03T07:10:01.941Z,21.03
2022-12-03T07:12:30.311Z,21.03
2022-12-03T07:14:57.369Z,20.60
2022-12-03T07:17:24.586Z,22.20
2022-12-03T07:19:51.531Z,20.40
2022-12-03T07:22:18.518Z,20.47
2022-12-03T07:24:45.479Z,20.43
2022-12-03T07:27:12.498Z,20.83
2022-12-03T07:29:40.757Z,23.20
2022-12-03T07:32:07.716Z,20.67
2022-12-03T07:34:35.004Z,21.23
2022-12-03T07:37:02.211Z,21.73
2022-12-03T07:39:29.937Z,22.17
2022-12-03T07:41:56.919Z,21.60
2022-12-03T07:44:23.913Z,21.30
2022-12-03T07:46:52.290Z,20.40
2022-12-03T07:49:19.361Z,20.43
2022-12-03T07:51:53.691Z,21.07
2022-12-03T07:54:20.912Z,20.47
2022-12-03T07:56:50.705Z,21.63
2022-12-03T07:59:18.199Z,21.20
2022-12-03T08:01:45.718Z,20.67
2022-12-03T08:04:14.846Z,20.27
2022-12-03T08:06:41.942Z,22.30
2022-12-03T08:09:13.142Z,20.53
2022-12-03T08:11:46.076Z,21.53
2022-12-03T08:14:15.384Z,20.97
2022-12-03T08:16:45.242Z,21.53
2022-12-03T08:19:16.539Z,20.57
2022-12-03T08:21:44.459Z,22.93
2022-12-03T08:24:15.295Z,21.37
2022-12-03T08:26:46.543Z,21.20
2022-12-03T08:29:16.872Z,21.50
2022-12-03T08:31:49.096Z,21.47
2022-12-03T08:34:20.942Z,20.87
2022-12-03T08:36:51.993Z,20.83
2022-12-03T08:39:33.457Z,23.57
2022-12-03T08:42:32.094Z,20.07
2022-12-03T08:45:41.244Z,22.23
2022-12-03T08:48:33.829Z,22.03
2022-12-03T08:51:11.166Z,23.10
2022-12-03T08:53:43.007Z,22.77
2022-12-03T08:56:23.240Z,24.40
2022-12-03T08:58:54.104Z,26.27
2022-12-03T09:01:37.364Z,22.57
2022-12-03T09:04:28.886Z,22.97
2022-12-03T09:07:02.970Z,22.47
2022-12-03T09:09:30.317Z,22.10
2022-12-03T09:11:57.384Z,22.13
2022-12-03T09:14:24.433Z,22.83
2022-12-03T09:16:55.271Z,20.87
2022-12-03T09:19:23.033Z,26.93
2022-12-03T09:21:49.980Z,23.60
2022-12-03T09:24:18.415Z,22.87
2022-12-03T09:26:45.459Z,22.27
2022-12-03T09:29:12.991Z,22.37
2022-12-03T09:31:40.394Z,24.70
2022-12-03T09:34:08.435Z,22.10
2022-12-03T09:36:35.498Z,22.57
2022-12-03T09:39:02.641Z,22.53
2022-12-03T09:41:46.787Z,21.70
2022-12-03T09:44:17.990Z,21.97
2022-12-03T09:46:48.116Z,22.30
2022-12-03T09:49:18.746Z,23.33
2022-12-03T09:51:46.592Z,21.50
2022-12-03T09:54:24.086Z,22.13
2022-12-03T09:56:53.808Z,21.63
2022-12-03T09:59:23.002Z,21.93
2022-12-03T10:01:50.276Z,22.73
2022-12-03T10:04:17.656Z,24.70
2022-12-03T10:06:46.217Z,23.73
2022-12-03T10:09:22.325Z,20.57
2022-12-03T10:11:59.764Z,20.27
2022-12-03T10:14:31.252Z,21.33
2022-12-03T10:16:58.912Z,21.93
2022-12-03T10:19:30.205Z,21.80
2022-12-03T10:21:57.620Z,22.10
2022-12-03T10:24:28.473Z,21.10
2022-12-03T10:26:59.681Z,21.27
2022-12-03T10:29:33.501Z,22.23
2022-12-03T10:32:03.946Z,20.60
2022-12-03T10:34:34.552Z,21.03
2022-12-03T10:37:12.282Z,22.07
2022-12-03T10:39:59.363Z,20.30
2022-12-03T10:42:31.473Z,21.20
2022-12-03T10:45:16.569Z,22.10
2022-12-03T10:48:01.351Z,21.67
2022-12-03T10:50:28.368Z,21.87
2022-12-03T10:52:55.358Z,21.03
2022-12-03T10:55:22.411Z,21.33
2022-12-03T10:57:50.827Z,22.43
2022-12-03T11:00:20.482Z,20.37
2022-12-03T11:02:54.853Z,20.10
2022-12-03T11:05:27.417Z,20.03
2022-12-03T11:07:55.561Z,21.07
2022-12-03T11:10:23.070Z,21.13
2022-12-03T11:13:43.766Z,21.50
2022-12-03T11:16:11.913Z,20.53
2022-12-03T11:19:00.190Z,20.20
2022-12-03T11:21:27.745Z,20.53
2022-12-03T11:24:20.753Z,19.37
2022-12-03T11:27:20.479Z,19.87
2022-12-03T11:30:00.959Z,19.70
2022-12-03T11:33:01.303Z,19.13
2022-12-03T11:35:35.969Z,21.60
2022-12-03T11:38:54.241Z,19.03
2022-12-03T11:41:29.245Z,17.60
2022-12-03T11:44:32.894Z,17.37
2022-12-03T11:47:15.644Z,17.17
2022-12-03T11:49:47.899Z,16.20
2022-12-03T11:52:29.940Z,16.67
2022-12-03T11:55:02.657Z,16.67
2022-12-03T11:57:37.684Z,16.17
2022-12-03T12:00:17.022Z,17.03
2022-12-03T12:02:46.266Z,16.73
2022-12-03T12:05:25.391Z,16.23
2022-12-03T12:07:53.862Z,15.93
2022-12-03T12:10:46.351Z,16.80
2022-12-03T12:13:55.304Z,16.10
2022-12-03T12:16:47.446Z,16.47
2022-12-03T12:19:38.596Z,16.90
2022-12-03T12:22:31.217Z,16.80
2022-12-03T12:25:00.185Z,16.93
2022-12-03T12:27:35.894Z,16.03
2022-12-03T12:30:07.485Z,15.73
2022-12-03T12:32:44.730Z,15.57
2022-12-03T12:35:19.421Z,16.30
2022-12-03T12:37:58.126Z,15.00
2022-12-03T12:40:28.734Z,15.93
2022-12-03T12:42:58.904Z,14.70
2022-12-03T12:45:28.592Z,14.13
2022-12-03T12:48:07.869Z,14.80
2022-12-03T12:50:38.228Z,15.00
2022-12-03T12:53:16.811Z,14.87
2022-12-03T12:55:44.000Z,15.67
2022-12-03T12:58:16.575Z,15.07
2022-12-03T13:00:48.695Z,13.20
2022-12-03T13:03:18.871Z,14.57
2022-12-03T13:05:50.527Z,14.93
2022-12-03T13:08:30.859Z,13.67
2022-12-03T13:11:00.837Z,16.03
2022-12-03T13:13:43.707Z,15.13
2022-12-03T13:16:19.031Z,14.40
2022-12-03T13:18:48.506Z,14.13
2022-12-03T13:21:37.590Z,14.10
2022-12-03T13:24:32.161Z,13.33
2022-12-03T13:27:02.407Z,14.20
2022-12-03T13:29:29.373Z,14.37
2022-12-03T13:32:01.550Z,14.13
2022-12-03T13:34:33.544Z,15.53
2022-12-03T13:37:12.149Z,15.67
2022-12-03T13:39:45.762Z,14.20
2022-12-03T13:42:39.054Z,15.87
2022-12-03T13:45:31.173Z,16.23
2022-12-03T13:48:01.161Z,16.57
2022-12-03T13:50:36.163Z,16.17
2022-12-03T13:53:19.942Z,16.60
2022-12-03T13:55:50.877Z,16.13
2022-12-03T13:58:17.928Z,16.13
2022-12-03T14:00:45.435Z,15.13
2022-12-03T14:03:12.626Z,15.27
2022-12-03T14:05:39.634Z,16.93
2022-12-03T14:08:08.062Z,18.23
2022-12-03T14:10:35.120Z,15.40
2022-12-03T14:13:02.261Z,16.23
2022-12-03T14:15:29.259Z,16.17
2022-12-03T14:17:56.294Z,16.90
2022-12-03T14:20:23.279Z,17.00
2022-12-03T14:22:52.902Z,15.47
2022-12-03T14:25:24.588Z,16.37
2022-12-03T14:27:51.601Z,15.13
2022-12-03T14:30:18.807Z,18.33
2022-12-03T14:32:45.798Z,17.17
2022-12-03T14:35:12.988Z,16.77
2022-12-03T14:37:39.973Z,16.90
2022-12-03T14:40:09.015Z,17.17
2022-12-03T14:42:37.518Z,16.27
2022-12-03T14:45:06.512Z,16.53
2022-12-03T14:47:33.663Z,17.47
2022-12-03T14:50:00.846Z,19.73
2022-12-03T14:52:27.830Z,17.60
2022-12-03T14:54:54.815Z,19.50
2022-12-03T14:57:21.756Z,18.47
2022-12-03T14:59:50.045Z,17.23
2022-12-03T15:02:17.063Z,18.10
2022-12-03T15:04:44.291Z,17.33
2022-12-03T15:07:11.312Z,19.27
2022-12-03T15:09:38.328Z,17.83
2022-12-03T15:12:06.564Z,17.40
2022-12-03T15:14:33.615Z,17.80
2022-12-03T15:17:01.931Z,18.00
2022-12-03T15:19:29.187Z,17.67
2022-12-03T15:21:56.181Z,23.03
2022-12-03T15:24:23.140Z,31.77
2022-12-03T15:26:52.122Z,20.17
2022-12-03T15:29:19.189Z,21.70
2022-12-03T15:31:46.233Z,20.07
2022-12-03T15:34:20.316Z,18.30
2022-12-03T15:36:49.373Z,19.67
2022-12-03T15:39:16.337Z,18.80
2022-12-03T15:41:43.403Z,18.73
2022-12-03T15:44:10.454Z,19.87
2022-12-03T15:46:37.473Z,19.30
2022-12-03T15:49:04.504Z,18.97
2022-12-03T15:51:32.814Z,18.87
2022-12-03T15:53:59.755Z,19.53
2022-12-03T15:56:26.691Z,20.90
2022-12-03T15:58:53.634Z,20.50
2022-12-03T16:01:20.680Z,21.50
2022-12-03T16:03:47.719Z,21.47
2022-12-03T16:06:14.772Z,23.13
2022-12-03T16:08:43.081Z,24.30
2022-12-03T16:11:10.061Z,19.93
2022-12-03T16:13:37.051Z,20.13
2022-12-03T16:16:04.478Z,20.40
2022-12-03T16:18:51.516Z,20.13
2022-12-03T16:21:24.972Z,18.57
2022-12-03T16:23:55.389Z,20.30
2022-12-03T16:26:22.504Z,20.17
2022-12-03T16:28:49.654Z,20.90
2022-12-03T16:31:17.959Z,24.40
2022-12-03T16:33:45.166Z,22.13
2022-12-03T16:36:12.096Z,20.70
2022-12-03T16:38:39.077Z,21.83
2022-12-03T16:41:09.328Z,22.37
2022-12-03T16:43:38.609Z,23.17
2022-12-03T16:46:15.352Z,22.67
2022-12-03T16:48:42.607Z,21.47
2022-12-03T16:51:10.047Z,20.93
2022-12-03T16:53:37.141Z,20.20
2022-12-03T16:56:04.425Z,21.67
2022-12-03T16:58:32.767Z,22.23
2022-12-03T17:00:59.678Z,24.00
2022-12-03T17:03:32.021Z,24.50
2022-12-03T17:06:00.989Z,23.97
2022-12-03T17:08:28.259Z,25.00
2022-12-03T17:10:55.828Z,24.53
2022-12-03T17:13:23.203Z,24.57
2022-12-03T17:15:51.640Z,21.80
2022-12-03T17:18:18.658Z,23.53
2022-12-03T17:20:45.586Z,23.37
2022-12-03T17:23:12.992Z,22.73
2022-12-03T17:25:39.985Z,22.53
2022-12-03T17:28:06.917Z,22.37
2022-12-03T17:30:33.943Z,23.53
2022-12-03T17:33:02.332Z,23.67
2022-12-03T17:35:29.370Z,25.23
2022-12-03T17:37:56.418Z,23.83
2022-12-03T17:40:23.699Z,24.63
2022-12-03T17:42:50.654Z,22.40
2022-12-03T17:45:17.777Z,23.93
2022-12-03T17:47:44.739Z,23.17
2022-12-03T17:50:13.257Z,22.13
2022-12-03T17:52:40.297Z,22.27
2022-12-03T17:55:12.745Z,22.67
2022-12-03T17:57:43.163Z,22.70
2022-12-03T18:00:12.027Z,22.80
2022-12-03T18:02:39.360Z,22.40
2022-12-03T18:05:07.011Z,24.07
2022-12-03T18:07:35.393Z,23.90
2022-12-03T18:10:02.505Z,26.70
2022-12-03T18:12:29.545Z,23.10
2022-12-03T18:14:56.540Z,24.53
2022-12-03T18:17:23.507Z,22.97
2022-12-03T18:19:50.651Z,22.07
2022-12-03T18:22:18.192Z,22.33
2022-12-03T18:24:51.504Z,21.93
2022-12-03T18:27:21.212Z,22.27
2022-12-03T18:29:48.435Z,23.27
2022-12-03T18:32:28.219Z,22.17
2022-12-03T18:34:56.791Z,22.43
2022-12-03T18:37:27.854Z,23.37
2022-12-03T18:39:57.888Z,21.83
2022-12-03T18:42:25.607Z,21.47
2022-12-03T18:44:56.216Z,21.93
2022-12-03T18:47:27.626Z,23.47
2022-12-03T18:49:55.889Z,22.20
2022-12-03T18:52:24.979Z,23.37
2022-12-03T18:54:52.703Z,20.90
2022-12-03T18:57:21.004Z,20.00
2022-12-03T18:59:47.975Z,19.70
2022-12-03T19:05:08.836Z,21.23
2022-12-03T19:07:35.916Z,22.13
2022-12-03T19:10:03.742Z,26.73
2022-12-03T19:12:32.862Z,24.03
2022-12-03T19:14:59.819Z,23.03
2022-12-03T19:17:27.381Z,22.77
2022-12-03T19:19:54.949Z,23.57
2022-12-03T19:22:22.756Z,24.40
2022-12-03T19:24:49.775Z,22.50
2022-12-03T19:27:16.873Z,23.87
2022-12-03T19:29:47.967Z,23.70
2022-12-03T19:32:15.291Z,23.57
2022-12-03T19:34:42.319Z,24.63
2022-12-03T19:37:09.325Z,23.43
2022-12-03T19:39:36.654Z,22.47
2022-12-03T19:42:04.155Z,23.47
2022-12-03T19:44:31.145Z,22.73
2022-12-03T19:46:59.499Z,22.83
2022-12-03T19:49:27.046Z,22.50
2022-12-03T19:51:54.122Z,22.43
2022-12-03T19:54:21.085Z,22.73
2022-12-03T19:56:48.065Z,23.23
2022-12-03T19:59:15.231Z,23.70
2022-12-03T20:01:43.182Z,21.63
2022-12-03T20:04:13.244Z,22.70
2022-12-03T20:06:40.531Z,21.97
2022-12-03T20:09:11.837Z,24.20
2022-12-03T20:11:41.251Z,23.77
2022-12-03T20:14:13.282Z,23.13
2022-12-03T20:16:40.899Z,24.03
2022-12-03T20:19:13.085Z,23.57
2022-12-03T20:21:40.806Z,23.37
2022-12-03T20:24:12.450Z,21.70
2022-12-03T20:26:40.324Z,23.33
2022-12-03T20:29:07.355Z,22.97
2022-12-03T20:31:34.402Z,23.77
2022-12-03T20:34:03.667Z,24.73
2022-12-03T20:36:32.976Z,22.73
2022-12-03T20:39:02.276Z,24.33
2022-12-03T20:41:29.685Z,23.43
2022-12-03T20:43:56.873Z,23.77
2022-12-03T20:46:26.311Z,22.83
2022-12-03T20:48:54.236Z,23.23
2022-12-03T20:51:24.722Z,23.73
2022-12-03T20:53:54.699Z,24.83
2022-12-03T20:56:25.954Z,23.07
2022-12-03T20:58:53.627Z,23.77
2022-12-03T21:01:23.427Z,23.57
2022-12-03T21:03:52.755Z,23.10
2022-12-03T21:06:20.983Z,24.03
2022-12-03T21:08:48.417Z,25.03
2022-12-03T21:11:20.375Z,24.90
2022-12-03T21:13:48.391Z,22.57
2022-12-03T21:16:19.093Z,23.97
2022-12-03T21:18:46.985Z,24.70
2022-12-03T21:21:16.599Z,22.93
2022-12-03T21:23:44.608Z,26.47
2022-12-03T21:26:14.421Z,24.27
2022-12-03T21:28:45.708Z,26.13
2022-12-03T21:31:16.457Z,25.27
2022-12-03T21:33:43.858Z,25.97
2022-12-03T21:36:14.073Z,27.20
2022-12-03T21:38:41.228Z,25.90
2022-12-03T21:41:08.494Z,23.90
2022-12-03T21:43:35.625Z,27.20
2022-12-03T21:47:10.003Z,26.97
2022-12-03T21:48:54.602Z,25.53
2022-12-03T21:51:21.762Z,27.80
2022-12-03T21:53:48.796Z,29.53
2022-12-03T21:56:18.596Z,25.77
2022-12-03T21:58:46.441Z,26.57
2022-12-03T22:01:18.348Z,26.63
2022-12-03T22:03:45.416Z,25.07
2022-12-03T22:06:13.484Z,27.10
2022-12-03T22:08:41.305Z,28.13
2022-12-03T22:11:11.023Z,27.13
2022-12-03T22:13:39.707Z,27.17
2022-12-03T22:16:09.889Z,26.53
2022-12-03T22:18:38.597Z,26.17
2022-12-03T22:21:07.075Z,25.33
2022-12-03T22:23:35.075Z,27.40
2022-12-03T22:26:05.853Z,26.80
2022-12-03T22:28:34.161Z,27.13
2022-12-03T22:31:06.545Z,26.07
2022-12-03T22:33:33.822Z,27.57
2022-12-03T22:36:06.181Z,28.43
2022-12-03T22:38:34.267Z,26.67
2022-12-03T22:41:05.884Z,26.43
2022-12-03T22:43:34.682Z,28.83
2022-12-03T22:46:01.730Z,25.37
2022-12-03T22:48:28.792Z,26.30
2022-12-03T22:50:55.811Z,26.07
2022-12-03T22:53:24.159Z,27.63
2022-12-03T22:55:55.563Z,25.33
2022-12-03T22:58:23.497Z,25.60
2022-12-03T23:00:51.802Z,26.00
2022-12-03T23:03:19.545Z,25.87
2022-12-03T23:05:46.673Z,27.73
2022-12-03T23:08:17.586Z,25.07
2022-12-03T23:10:49.503Z,26.43
2022-12-03T23:13:19.030Z,26.00
2022-12-03T23:15:47.774Z,26.07
2022-12-03T23:18:15.376Z,26.73
2022-12-03T23:20:43.901Z,27.23
2022-12-03T23:23:11.405Z,25.67
2022-12-03T23:25:38.798Z,24.53
2022-12-03T23:28:08.437Z,25.00
2022-12-03T23:30:36.521Z,26.70
2022-12-03T23:33:03.970Z,25.53
2022-12-03T23:35:32.076Z,24.80
2022-12-03T23:38:00.130Z,25.23
2022-12-03T23:40:27.213Z,26.47
2022-12-03T23:42:54.236Z,24.87
2022-12-03T23:45:22.842Z,24.47
2022-12-03T23:47:55.003Z,26.73
2022-12-03T23:50:25.595Z,24.80
2022-12-03T23:52:52.887Z,24.53
2022-12-03T23:55:20.577Z,26.57
2022-12-03T23:57:47.720Z,25.67
